createdAt,value
2019-03-17T00:01:42.698Z,7.62
2019-03-17T00:04:12.461Z,7.67
2019-03-17T00:06:45.020Z,8.20
2019-03-17T00:09:18.063Z,8.60
2019-03-17T00:11:47.890Z,10.85
2019-03-17T00:14:17.676Z,8.83
2019-03-17T00:16:48.059Z,8.17
2019-03-17T00:19:18.659Z,7.92
2019-03-17T00:21:49.875Z,7.80
2019-03-17T00:24:19.935Z,8.38
2019-03-17T00:26:49.775Z,8.33
2019-03-17T00:29:21.153Z,8.00
2019-03-17T00:31:50.893Z,7.85
2019-03-17T00:34:22.414Z,7.42
2019-03-17T00:36:54.454Z,7.20
2019-03-17T00:39:24.319Z,7.67
2019-03-17T00:41:54.474Z,8.50
2019-03-17T00:44:24.331Z,8.20
2019-03-17T00:46:56.402Z,8.50
2019-03-17T00:49:26.291Z,8.18
2019-03-17T00:51:56.470Z,7.62
2019-03-17T00:54:26.536Z,8.10
2019-03-17T00:56:57.634Z,7.58
2019-03-17T00:59:27.400Z,7.83
2019-03-17T01:01:57.488Z,8.00
2019-03-17T01:04:28.492Z,7.40
2019-03-17T01:06:59.654Z,7.58
2019-03-17T01:09:29.790Z,7.30
2019-03-17T01:11:59.573Z,6.47
2019-03-17T01:14:29.264Z,7.30
2019-03-17T01:16:58.981Z,6.83
2019-03-17T01:19:28.896Z,6.97
2019-03-17T01:22:02.162Z,6.92
2019-03-17T01:24:37.686Z,7.12
2019-03-17T01:27:07.910Z,7.12
2019-03-17T01:29:39.205Z,7.03
2019-03-17T01:32:09.582Z,8.33
2019-03-17T01:34:39.948Z,7.47
2019-03-17T01:37:09.982Z,8.00
2019-03-17T01:39:39.895Z,7.37
2019-03-17T01:42:09.839Z,7.47
2019-03-17T01:44:39.532Z,8.83
2019-03-17T01:47:09.349Z,8.88
2019-03-17T01:49:44.053Z,7.78
2019-03-17T01:52:13.942Z,8.48
2019-03-17T01:54:43.696Z,8.40
2019-03-17T01:57:13.491Z,8.10
2019-03-17T01:59:43.977Z,11.90
2019-03-17T02:02:14.111Z,8.13
2019-03-17T02:04:43.767Z,7.58
2019-03-17T02:07:14.840Z,6.97
2019-03-17T02:09:44.601Z,7.97
2019-03-17T02:12:14.337Z,7.83
2019-03-17T02:14:44.185Z,8.20
2019-03-17T02:17:14.038Z,8.45
2019-03-17T02:19:43.778Z,7.78
2019-03-17T02:22:14.026Z,8.18
2019-03-17T02:24:44.107Z,8.28
2019-03-17T02:27:13.766Z,8.20
2019-03-17T02:29:43.447Z,8.47
2019-03-17T02:32:13.120Z,8.10
2019-03-17T02:34:44.802Z,8.00
2019-03-17T02:37:14.587Z,8.90
2019-03-17T02:39:44.335Z,8.55
2019-03-17T02:42:18.767Z,8.18
2019-03-17T02:44:50.433Z,8.10
2019-03-17T02:47:21.326Z,8.30
2019-03-17T02:49:54.313Z,9.27
2019-03-17T02:52:24.076Z,8.05
2019-03-17T02:54:54.038Z,8.93
2019-03-17T02:57:24.683Z,8.43
2019-03-17T02:59:54.674Z,18.35
2019-03-17T03:02:24.407Z,8.70
2019-03-17T03:04:54.215Z,8.83
2019-03-17T03:07:26.653Z,8.15
2019-03-17T03:09:56.311Z,8.73
2019-03-17T03:12:26.103Z,8.03
2019-03-17T03:14:56.528Z,8.43
2019-03-17T03:17:26.239Z,8.38
2019-03-17T03:19:56.578Z,8.90
2019-03-17T03:22:26.568Z,8.40
2019-03-17T03:24:58.040Z,8.00
2019-03-17T03:27:27.747Z,8.23
2019-03-17T03:29:58.447Z,8.43
2019-03-17T03:32:28.570Z,8.15
2019-03-17T03:34:58.341Z,7.55
2019-03-17T03:37:30.124Z,8.03
2019-03-17T03:40:01.396Z,8.13
2019-03-17T03:42:31.641Z,8.40
2019-03-17T03:45:01.649Z,8.58
2019-03-17T03:47:32.736Z,8.03
2019-03-17T03:50:04.505Z,8.65
2019-03-17T03:52:34.741Z,8.33
2019-03-17T03:55:05.105Z,8.40
2019-03-17T03:57:35.241Z,8.18
2019-03-17T04:00:05.847Z,8.20
2019-03-17T04:02:37.390Z,8.23
2019-03-17T04:05:08.735Z,8.70
2019-03-17T04:07:38.468Z,8.78
2019-03-17T04:10:08.965Z,9.05
2019-03-17T04:12:38.593Z,9.13
2019-03-17T04:15:08.688Z,10.68
2019-03-17T04:17:38.431Z,9.47
2019-03-17T04:20:10.159Z,9.10
2019-03-17T04:22:39.944Z,21.52
2019-03-17T04:25:10.322Z,8.30
2019-03-17T04:27:40.058Z,8.63
2019-03-17T04:30:10.844Z,9.38
2019-03-17T04:32:45.231Z,9.05
2019-03-17T04:35:15.115Z,9.88
2019-03-17T04:37:44.820Z,9.53
2019-03-17T04:40:16.238Z,9.53
2019-03-17T04:42:46.248Z,8.83
2019-03-17T04:45:15.951Z,8.30
2019-03-17T04:47:45.743Z,8.10
2019-03-17T04:50:15.605Z,8.85
2019-03-17T04:52:45.679Z,9.80
2019-03-17T04:55:16.186Z,9.45
2019-03-17T04:57:46.030Z,8.70
2019-03-17T05:00:16.940Z,8.75
2019-03-17T05:02:47.107Z,9.17
2019-03-17T05:05:16.844Z,10.20
2019-03-17T05:07:50.016Z,8.63
2019-03-17T05:10:22.903Z,8.97
2019-03-17T05:12:53.061Z,9.30
2019-03-17T05:15:24.417Z,9.63
2019-03-17T05:17:54.835Z,9.35
2019-03-17T05:20:24.510Z,9.48
2019-03-17T05:22:54.345Z,9.20
2019-03-17T05:25:24.219Z,9.45
2019-03-17T05:27:54.308Z,10.32
2019-03-17T05:30:24.249Z,9.35
2019-03-17T05:32:55.470Z,8.03
2019-03-17T05:35:25.331Z,9.08
2019-03-17T05:37:57.272Z,10.15
2019-03-17T05:40:27.125Z,9.85
2019-03-17T05:42:56.909Z,9.73
2019-03-17T05:45:26.970Z,10.13
2019-03-17T05:47:56.796Z,10.35
2019-03-17T05:50:26.472Z,10.45
2019-03-17T05:52:56.298Z,10.00
2019-03-17T05:55:27.759Z,9.65
2019-03-17T05:57:57.959Z,10.13
2019-03-17T06:00:27.943Z,9.20
2019-03-17T06:02:57.726Z,10.03
2019-03-17T06:05:27.419Z,10.80
2019-03-17T06:07:58.508Z,10.03
2019-03-17T06:10:30.687Z,10.98
2019-03-17T06:13:00.583Z,10.68
2019-03-17T06:15:30.298Z,9.53
2019-03-17T06:18:02.192Z,9.93
2019-03-17T06:20:32.426Z,11.18
2019-03-17T06:23:05.006Z,10.80
2019-03-17T06:25:38.184Z,11.13
2019-03-17T06:28:08.049Z,10.83
2019-03-17T06:30:39.631Z,11.08
2019-03-17T06:33:09.921Z,10.58
2019-03-17T06:35:39.681Z,11.08
2019-03-17T06:38:09.502Z,11.40
2019-03-17T06:40:39.648Z,11.05
2019-03-17T06:43:09.380Z,11.15
2019-03-17T06:45:41.428Z,10.80
2019-03-17T06:48:11.832Z,11.83
2019-03-17T06:50:42.349Z,10.50
2019-03-17T06:53:12.180Z,10.60
2019-03-17T06:55:41.960Z,10.38
2019-03-17T06:58:11.644Z,13.38
2019-03-17T07:00:41.314Z,10.95
2019-03-17T07:03:18.156Z,11.05
2019-03-17T07:05:47.941Z,11.85
2019-03-17T07:08:21.167Z,10.70
2019-03-17T07:10:51.744Z,11.55
2019-03-17T07:13:21.813Z,11.25
2019-03-17T07:15:51.566Z,12.03
2019-03-17T07:18:22.768Z,12.55
2019-03-17T07:20:53.061Z,12.30
2019-03-17T07:23:24.265Z,12.80
2019-03-17T07:25:54.696Z,13.15
2019-03-17T07:28:26.386Z,15.25
2019-03-17T07:30:57.671Z,16.20
2019-03-17T07:33:27.840Z,16.10
2019-03-17T07:36:23.601Z,14.00
2019-03-17T07:38:56.232Z,15.53
2019-03-17T07:41:28.349Z,13.72
2019-03-17T07:43:58.014Z,14.53
2019-03-17T07:46:28.180Z,12.82
2019-03-17T07:48:57.904Z,12.60
2019-03-17T07:51:27.737Z,12.15
2019-03-17T07:54:00.624Z,12.43
2019-03-17T07:56:34.101Z,12.35
2019-03-17T07:59:05.085Z,12.50
2019-03-17T08:01:39.035Z,12.53
2019-03-17T08:04:08.814Z,12.45
2019-03-17T08:06:38.843Z,12.15
2019-03-17T08:09:11.843Z,12.37
2019-03-17T08:11:47.056Z,13.20
2019-03-17T08:14:50.124Z,11.68
2019-03-17T08:17:46.046Z,12.18
2019-03-17T08:20:43.211Z,12.58
2019-03-17T08:26:15.596Z,12.53
2019-03-17T08:28:47.282Z,13.80
2019-03-17T08:31:16.879Z,12.98
2019-03-17T08:33:59.504Z,12.47
2019-03-17T08:36:34.059Z,13.37
2019-03-17T08:39:13.218Z,12.98
2019-03-17T08:41:43.479Z,12.65
2019-03-17T08:44:13.186Z,13.22
2019-03-17T08:46:43.104Z,12.78
2019-03-17T08:49:13.075Z,12.75
2019-03-17T08:51:43.161Z,12.20
2019-03-17T08:54:13.059Z,12.10
2019-03-17T08:56:43.347Z,12.63
2019-03-17T08:59:13.074Z,12.47
2019-03-17T09:01:43.419Z,22.65
2019-03-17T09:04:15.819Z,31.62
2019-03-17T09:06:45.607Z,29.23
2019-03-17T09:09:15.366Z,32.13
2019-03-17T09:11:45.541Z,30.70
2019-03-17T09:14:15.279Z,26.75
2019-03-17T09:16:45.376Z,26.95
2019-03-17T09:19:15.218Z,26.90
2019-03-17T09:21:45.480Z,27.65
2019-03-17T09:24:17.454Z,25.90
2019-03-17T09:26:47.039Z,21.77
2019-03-17T09:29:16.839Z,23.00
2019-03-17T09:31:49.845Z,23.25
2019-03-17T09:34:19.643Z,22.30
2019-03-17T09:36:49.444Z,21.12
2019-03-17T09:39:20.605Z,16.23
2019-03-17T09:41:50.425Z,12.90
2019-03-17T09:44:21.771Z,14.07
2019-03-17T09:46:51.683Z,11.60
2019-03-17T09:49:21.555Z,11.03
2019-03-17T09:51:51.427Z,9.83
2019-03-17T09:54:21.314Z,10.03
2019-03-17T09:56:51.857Z,9.15
2019-03-17T09:59:25.349Z,8.90
2019-03-17T10:01:55.258Z,7.73
2019-03-17T10:04:26.803Z,10.32
2019-03-17T10:06:56.617Z,10.30
2019-03-17T10:09:27.821Z,9.88
2019-03-17T10:11:57.526Z,9.53
2019-03-17T10:14:31.881Z,8.98
2019-03-17T10:17:02.352Z,9.17
2019-03-17T10:19:32.135Z,10.13
2019-03-17T10:22:06.690Z,10.10
2019-03-17T10:24:36.749Z,12.20
2019-03-17T10:27:06.595Z,10.25
2019-03-17T10:29:37.134Z,10.75
2019-03-17T10:32:06.975Z,10.10
2019-03-17T10:34:36.738Z,10.80
2019-03-17T10:37:06.536Z,10.28
2019-03-17T10:39:36.693Z,10.43
2019-03-17T10:42:06.522Z,9.50
2019-03-17T10:44:36.650Z,8.68
2019-03-17T10:47:06.522Z,12.07
2019-03-17T10:49:36.362Z,10.53
2019-03-17T10:52:06.599Z,8.08
2019-03-17T10:54:36.734Z,7.50
2019-03-17T10:57:09.507Z,7.28
2019-03-17T10:59:40.363Z,6.20
2019-03-17T11:02:10.702Z,6.00
2019-03-17T11:04:40.450Z,6.28
2019-03-17T11:07:10.934Z,5.67
2019-03-17T11:09:41.110Z,6.70
2019-03-17T11:12:10.960Z,5.80
2019-03-17T11:14:41.086Z,6.33
2019-03-17T11:17:10.977Z,6.00
2019-03-17T11:19:40.820Z,8.08
2019-03-17T11:22:10.941Z,5.40
2019-03-17T11:24:41.150Z,7.85
2019-03-17T11:27:11.086Z,5.87
2019-03-17T11:29:40.934Z,4.47
2019-03-17T11:32:10.766Z,6.30
2019-03-17T11:34:41.040Z,7.28
2019-03-17T11:37:11.359Z,5.70
2019-03-17T11:39:41.494Z,7.05
2019-03-17T11:42:11.608Z,8.48
2019-03-17T11:44:41.387Z,6.50
2019-03-17T11:47:12.083Z,6.65
2019-03-17T11:49:46.174Z,7.33
2019-03-17T11:52:16.143Z,7.12
2019-03-17T11:54:45.806Z,6.20
2019-03-17T11:57:15.498Z,5.90
2019-03-17T11:59:45.343Z,5.67
2019-03-17T12:02:26.085Z,5.60
2019-03-17T12:04:46.473Z,6.10
2019-03-17T12:07:16.939Z,5.40
2019-03-17T12:09:50.396Z,8.60
2019-03-17T12:12:17.963Z,5.40
2019-03-17T12:14:47.690Z,4.30
2019-03-17T12:17:17.400Z,4.65
2019-03-17T12:19:48.133Z,4.45
2019-03-17T12:22:18.243Z,6.37
2019-03-17T12:24:47.976Z,8.85
2019-03-17T12:27:19.298Z,5.12
2019-03-17T12:29:49.171Z,4.90
2019-03-17T12:32:18.966Z,6.95
2019-03-17T12:34:49.390Z,6.80
2019-03-17T12:37:25.224Z,8.33
2019-03-17T12:40:14.971Z,7.85
2019-03-17T12:42:55.765Z,6.35
2019-03-17T12:45:26.868Z,7.35
2019-03-17T12:48:00.889Z,7.30
2019-03-17T12:50:32.215Z,8.45
2019-03-17T12:53:02.696Z,9.03
2019-03-17T12:55:32.646Z,7.67
2019-03-17T12:58:04.026Z,8.17
2019-03-17T13:00:41.498Z,7.53
2019-03-17T13:03:18.367Z,5.70
2019-03-17T13:05:58.787Z,8.03
2019-03-17T13:08:34.790Z,5.08
2019-03-17T13:11:24.731Z,5.25
2019-03-17T13:14:00.953Z,5.37
2019-03-17T13:16:33.040Z,6.90
2019-03-17T13:19:02.742Z,5.97
2019-03-17T13:21:32.452Z,5.00
2019-03-17T13:24:09.050Z,5.60
2019-03-17T13:26:38.957Z,6.65
2019-03-17T13:29:21.441Z,5.95
2019-03-17T13:31:51.028Z,6.80
2019-03-17T13:34:23.408Z,6.00
2019-03-17T13:37:05.936Z,4.90
2019-03-17T13:39:36.721Z,5.42
2019-03-17T13:42:10.535Z,5.00
2019-03-17T13:44:40.187Z,5.08
2019-03-17T13:47:10.538Z,4.80
2019-03-17T13:49:53.970Z,5.42
2019-03-17T13:52:45.638Z,4.92
2019-03-17T13:55:27.248Z,5.72
2019-03-17T13:58:02.131Z,5.40
2019-03-17T14:00:37.056Z,5.40
2019-03-17T14:03:08.206Z,4.70
2019-03-17T14:05:38.011Z,4.20
2019-03-17T14:08:12.024Z,4.62
2019-03-17T14:10:42.680Z,5.03
2019-03-17T14:13:12.548Z,5.45
2019-03-17T14:15:42.681Z,10.00
2019-03-17T14:18:12.583Z,6.20
2019-03-17T14:20:43.832Z,4.30
2019-03-17T14:23:16.967Z,4.92
2019-03-17T14:25:56.667Z,4.80
2019-03-17T14:28:26.396Z,4.12
2019-03-17T14:30:56.227Z,4.80
2019-03-17T14:33:28.355Z,4.42
2019-03-17T14:36:13.992Z,4.70
2019-03-17T14:38:43.809Z,5.15
2019-03-17T14:41:13.748Z,5.70
2019-03-17T14:43:43.611Z,4.72
2019-03-17T14:46:13.333Z,5.87
2019-03-17T14:48:43.040Z,4.95
2019-03-17T14:51:18.711Z,4.83
2019-03-17T14:53:54.339Z,5.25
2019-03-17T14:56:24.477Z,4.95
2019-03-17T14:58:54.564Z,5.30
2019-03-17T15:01:24.480Z,4.28
2019-03-17T15:04:00.963Z,5.30
2019-03-17T15:06:43.158Z,4.97
2019-03-17T15:09:13.114Z,4.87
2019-03-17T15:11:42.789Z,4.85
2019-03-17T15:14:14.984Z,5.77
2019-03-17T15:16:44.878Z,15.72
2019-03-17T15:19:17.309Z,7.65
2019-03-17T15:21:57.654Z,5.60
2019-03-17T15:24:28.286Z,5.37
2019-03-17T15:26:58.127Z,5.97
2019-03-17T15:29:32.277Z,5.13
2019-03-17T15:32:17.221Z,5.03
2019-03-17T15:34:48.935Z,5.55
2019-03-17T15:37:18.709Z,4.47
2019-03-17T15:39:53.071Z,5.33
2019-03-17T15:42:22.958Z,5.10
2019-03-17T15:44:52.882Z,5.15
2019-03-17T15:47:27.142Z,5.05
2019-03-17T15:49:57.026Z,4.67
2019-03-17T15:52:26.755Z,4.83
2019-03-17T15:54:57.093Z,4.45
2019-03-17T15:57:27.437Z,4.33
2019-03-17T15:59:57.647Z,4.58
2019-03-17T16:02:28.068Z,4.10
2019-03-17T16:05:04.309Z,4.80
2019-03-17T16:07:42.098Z,4.00
2019-03-17T16:10:07.243Z,4.30
2019-03-17T16:12:42.919Z,4.63
2019-03-17T16:15:12.378Z,3.92
2019-03-17T16:17:57.964Z,4.42
2019-03-17T16:20:32.327Z,4.37
2019-03-17T16:23:04.894Z,4.55
2019-03-17T16:25:34.905Z,4.17
2019-03-17T16:28:05.006Z,5.15
2019-03-17T16:30:34.900Z,4.20
2019-03-17T16:33:05.036Z,4.85
2019-03-17T16:35:38.176Z,4.85
2019-03-17T16:38:08.464Z,5.10
2019-03-17T16:40:38.356Z,5.85
2019-03-17T16:43:16.798Z,5.60
2019-03-17T16:45:47.619Z,7.72
2019-03-17T16:48:20.000Z,4.50
2019-03-17T16:50:49.844Z,8.18
2019-03-17T16:53:19.896Z,10.50
2019-03-17T16:55:49.836Z,6.95
2019-03-17T16:58:19.779Z,8.70
2019-03-17T17:00:49.726Z,8.28
2019-03-17T17:03:21.456Z,5.83
2019-03-17T17:05:55.449Z,7.00
2019-03-17T17:08:25.359Z,6.33
2019-03-17T17:10:55.310Z,12.25
2019-03-17T17:13:29.289Z,10.15
2019-03-17T17:15:59.672Z,5.83
2019-03-17T17:18:31.059Z,6.62
2019-03-17T17:21:07.121Z,5.10
2019-03-17T17:23:47.884Z,4.80
2019-03-17T17:26:37.858Z,3.75
2019-03-17T17:29:08.436Z,8.43
2019-03-17T17:31:38.319Z,5.83
2019-03-17T17:34:11.976Z,5.83
2019-03-17T17:36:42.253Z,6.43
2019-03-17T17:39:11.966Z,4.00
2019-03-17T17:41:42.872Z,5.80
2019-03-17T17:44:13.335Z,6.00
2019-03-17T17:46:43.805Z,5.83
2019-03-17T17:49:16.157Z,4.55
2019-03-17T17:51:46.888Z,6.95
2019-03-17T17:54:27.440Z,9.30
2019-03-17T17:56:59.993Z,5.05
2019-03-17T17:59:32.717Z,3.90
2019-03-17T18:02:04.727Z,4.72
2019-03-17T18:04:35.035Z,5.17
2019-03-17T18:07:05.324Z,4.58
2019-03-17T18:09:35.554Z,4.40
2019-03-17T18:12:05.377Z,4.78
2019-03-17T18:14:35.290Z,4.30
2019-03-17T18:17:07.712Z,4.60
2019-03-17T18:19:37.881Z,4.00
2019-03-17T18:22:09.979Z,3.75
2019-03-17T18:24:52.804Z,4.10
2019-03-17T18:27:30.276Z,4.20
2019-03-17T18:30:03.079Z,4.40
2019-03-17T18:32:33.395Z,4.30
2019-03-17T18:35:03.211Z,4.40
2019-03-17T18:37:33.058Z,4.78
2019-03-17T18:40:02.851Z,4.20
2019-03-17T18:42:33.521Z,4.22
2019-03-17T18:45:03.506Z,4.42
2019-03-17T18:47:33.566Z,4.08
2019-03-17T18:50:03.703Z,5.35
2019-03-17T18:52:34.036Z,4.92
2019-03-17T18:55:03.811Z,4.30
2019-03-17T18:57:34.066Z,4.77
2019-03-17T19:00:04.564Z,4.40
2019-03-17T19:02:34.444Z,5.00
2019-03-17T19:05:05.256Z,4.33
2019-03-17T19:07:35.012Z,4.58
2019-03-17T19:10:04.872Z,4.60
2019-03-17T19:12:45.488Z,4.60
2019-03-17T19:15:11.320Z,4.62
2019-03-17T19:17:43.508Z,4.80
2019-03-17T19:20:14.206Z,4.63
2019-03-17T19:22:53.841Z,5.28
2019-03-17T19:25:23.534Z,5.37
2019-03-17T19:27:55.202Z,5.92
2019-03-17T19:30:27.581Z,5.40
2019-03-17T19:32:57.898Z,5.03
2019-03-17T19:35:29.550Z,4.90
2019-03-17T19:38:06.615Z,6.10
2019-03-17T19:40:42.484Z,5.60
2019-03-17T19:43:14.474Z,6.25
2019-03-17T19:45:44.363Z,5.00
2019-03-17T19:48:14.299Z,4.78
2019-03-17T19:50:44.273Z,4.62
2019-03-17T19:53:14.339Z,4.23
2019-03-17T19:55:44.451Z,4.60
2019-03-17T19:58:14.584Z,4.55
2019-03-17T20:00:44.908Z,4.83
2019-03-17T20:03:15.268Z,3.80
2019-03-17T20:05:48.428Z,4.83
2019-03-17T20:08:18.532Z,3.80
2019-03-17T20:10:51.500Z,3.30
2019-03-17T20:13:21.332Z,3.30
2019-03-17T20:15:51.450Z,3.30
2019-03-17T20:18:21.157Z,3.02
2019-03-17T20:20:51.996Z,2.72
2019-03-17T20:23:21.933Z,2.90
2019-03-17T20:25:51.751Z,2.60
2019-03-17T20:28:21.656Z,2.62
2019-03-17T20:30:51.430Z,2.73
2019-03-17T20:33:22.560Z,2.20
2019-03-17T20:35:53.085Z,2.40
2019-03-17T20:38:23.778Z,2.42
2019-03-17T20:40:53.811Z,2.20
2019-03-17T20:43:34.260Z,2.15
2019-03-17T20:45:55.826Z,2.15
2019-03-17T20:48:26.035Z,2.30
2019-03-17T20:50:59.063Z,2.17
2019-03-17T20:53:28.391Z,2.05
2019-03-17T20:55:59.095Z,2.20
2019-03-17T20:58:28.984Z,2.10
2019-03-17T21:00:58.963Z,2.00
2019-03-17T21:03:29.685Z,2.10
2019-03-17T21:05:59.930Z,2.30
2019-03-17T21:08:29.723Z,2.00
2019-03-17T21:11:02.522Z,2.33
2019-03-17T21:13:32.384Z,2.37
2019-03-17T21:16:03.844Z,2.30
2019-03-17T21:18:33.598Z,2.10
2019-03-17T21:21:05.387Z,2.40
2019-03-17T21:23:35.598Z,2.30
2019-03-17T21:26:05.555Z,2.27
2019-03-17T21:28:35.277Z,2.30
2019-03-17T21:31:05.130Z,2.50
2019-03-17T21:33:35.331Z,2.20
2019-03-17T21:36:06.235Z,1.90
2019-03-17T21:38:36.305Z,2.10
2019-03-17T21:41:07.410Z,1.95
2019-03-17T21:43:37.698Z,1.80
2019-03-17T21:46:07.483Z,1.87
2019-03-17T21:48:38.368Z,1.70
2019-03-17T21:51:10.810Z,1.98
2019-03-17T21:53:40.699Z,2.20
2019-03-17T21:56:10.615Z,1.90
2019-03-17T21:58:40.569Z,1.80
2019-03-17T22:01:12.940Z,1.92
2019-03-17T22:03:42.838Z,2.10
2019-03-17T22:06:12.667Z,1.70
2019-03-17T22:08:43.893Z,1.90
2019-03-17T22:11:13.602Z,2.02
2019-03-17T22:13:43.415Z,2.03
2019-03-17T22:16:13.120Z,2.05
2019-03-17T22:18:43.350Z,2.37
2019-03-17T22:21:13.183Z,2.30
2019-03-17T22:23:43.026Z,1.90
2019-03-17T22:26:13.329Z,2.15
2019-03-17T22:28:45.165Z,2.45
2019-03-17T22:31:15.271Z,2.33
2019-03-17T22:33:45.363Z,2.65
2019-03-17T22:36:15.751Z,2.00
2019-03-17T22:38:46.903Z,2.30
2019-03-17T22:41:17.292Z,2.60
2019-03-17T22:43:47.828Z,3.17
2019-03-17T22:46:20.003Z,2.67
2019-03-17T22:48:50.109Z,2.80
2019-03-17T22:51:21.058Z,2.42
2019-03-17T22:53:58.468Z,3.40
2019-03-17T22:56:28.309Z,2.40
2019-03-17T22:58:59.561Z,2.98
2019-03-17T23:01:33.483Z,2.65
2019-03-17T23:04:04.415Z,2.65
2019-03-17T23:06:35.748Z,2.90
2019-03-17T23:09:14.277Z,3.27
2019-03-17T23:11:49.871Z,2.50
2019-03-17T23:14:21.515Z,3.55
2019-03-17T23:16:55.665Z,3.47
2019-03-17T23:23:53.314Z,2.15
2019-03-17T23:30:02.518Z,1.98
2019-03-17T23:33:08.401Z,2.50
2019-03-17T23:36:27.684Z,1.80
2019-03-17T23:39:21.832Z,2.45
2019-03-17T23:41:58.936Z,2.55
2019-03-17T23:44:28.661Z,2.90
2019-03-17T23:46:58.530Z,3.12
2019-03-17T23:49:28.793Z,3.55
2019-03-17T23:51:58.584Z,3.72
2019-03-17T23:54:28.647Z,3.20
2019-03-17T23:57:02.321Z,3.10
2019-03-17T23:59:32.155Z,2.90
